sensor_id;sensor_type;location;lat;lon;timestamp;temperature;humidity
947;DHT22;460;48.734;9.152;2023-06-19T00:02:14;23.10;53.60
947;DHT22;460;48.734;9.152;2023-06-19T00:04:41;23.20;53.70
947;DHT22;460;48.734;9.152;2023-06-19T00:07:09;23.20;53.30
947;DHT22;460;48.734;9.152;2023-06-19T00:09:35;23.10;53.20
947;DHT22;460;48.734;9.152;2023-06-19T00:12:02;23.10;53.40
947;DHT22;460;48.734;9.152;2023-06-19T00:14:29;23.10;53.60
947;DHT22;460;48.734;9.152;2023-06-19T00:16:56;23.10;53.80
947;DHT22;460;48.734;9.152;2023-06-19T00:19:23;23.10;53.50
947;DHT22;460;48.734;9.152;2023-06-19T00:21:50;23.10;53.50
947;DHT22;460;48.734;9.152;2023-06-19T00:24:18;23.10;53.30
947;DHT22;460;48.734;9.152;2023-06-19T00:26:45;23.10;53.40
947;DHT22;460;48.734;9.152;2023-06-19T00:29:11;23.10;53.60
947;DHT22;460;48.734;9.152;2023-06-19T00:31:39;23.10;53.80
947;DHT22;460;48.734;9.152;2023-06-19T00:34:06;23.00;53.90
947;DHT22;460;48.734;9.152;2023-06-19T00:36:33;22.90;54.20
947;DHT22;460;48.734;9.152;2023-06-19T00:39:05;22.80;54.30
947;DHT22;460;48.734;9.152;2023-06-19T00:41:34;22.80;54.60
947;DHT22;460;48.734;9.152;2023-06-19T00:44:01;22.90;54.90
947;DHT22;460;48.734;9.152;2023-06-19T00:46:28;22.80;55.30
947;DHT22;460;48.734;9.152;2023-06-19T00:48:55;22.70;55.90
947;DHT22;460;48.734;9.152;2023-06-19T00:51:22;22.70;56.10
947;DHT22;460;48.734;9.152;2023-06-19T00:53:49;22.50;56.00
947;DHT22;460;48.734;9.152;2023-06-19T00:56:16;22.60;56.00
947;DHT22;460;48.734;9.152;2023-06-19T00:58:45;22.60;55.80
947;DHT22;460;48.734;9.152;2023-06-19T01:01:11;22.60;55.60
947;DHT22;460;48.734;9.152;2023-06-19T01:03:38;22.60;55.70
947;DHT22;460;48.734;9.152;2023-06-19T01:06:08;22.60;55.70
947;DHT22;460;48.734;9.152;2023-06-19T01:08:45;22.50;55.90
947;DHT22;460;48.734;9.152;2023-06-19T01:11:18;22.50;55.90
947;DHT22;460;48.734;9.152;2023-06-19T01:13:50;22.50;55.90
947;DHT22;460;48.734;9.152;2023-06-19T01:16:21;22.40;57.10
947;DHT22;460;48.734;9.152;2023-06-19T01:18:49;22.20;57.60
947;DHT22;460;48.734;9.152;2023-06-19T01:21:17;22.10;57.40
947;DHT22;460;48.734;9.152;2023-06-19T01:23:47;22.10;57.30
947;DHT22;460;48.734;9.152;2023-06-19T01:26:16;22.00;57.00
947;DHT22;460;48.734;9.152;2023-06-19T01:28:45;22.10;56.70
947;DHT22;460;48.734;9.152;2023-06-19T01:31:27;22.20;56.40
947;DHT22;460;48.734;9.152;2023-06-19T01:33:56;22.20;55.90
947;DHT22;460;48.734;9.152;2023-06-19T01:36:24;22.30;55.50
947;DHT22;460;48.734;9.152;2023-06-19T01:38:57;22.20;55.80
947;DHT22;460;48.734;9.152;2023-06-19T01:41:25;22.20;56.00
947;DHT22;460;48.734;9.152;2023-06-19T01:43:54;22.10;56.20
947;DHT22;460;48.734;9.152;2023-06-19T01:46:22;22.20;56.20
947;DHT22;460;48.734;9.152;2023-06-19T01:48:50;22.10;56.60
947;DHT22;460;48.734;9.152;2023-06-19T01:51:18;22.10;56.60
947;DHT22;460;48.734;9.152;2023-06-19T01:53:46;22.10;56.70
947;DHT22;460;48.734;9.152;2023-06-19T01:56:14;22.10;56.70
947;DHT22;460;48.734;9.152;2023-06-19T01:58:42;22.10;57.50
947;DHT22;460;48.734;9.152;2023-06-19T02:01:11;22.10;57.00
947;DHT22;460;48.734;9.152;2023-06-19T02:03:38;22.10;57.10
947;DHT22;460;48.734;9.152;2023-06-19T02:06:07;22.20;57.30
947;DHT22;460;48.734;9.152;2023-06-19T02:08:34;22.10;57.70
947;DHT22;460;48.734;9.152;2023-06-19T02:11:01;22.00;57.80
947;DHT22;460;48.734;9.152;2023-06-19T02:13:29;22.00;57.90
947;DHT22;460;48.734;9.152;2023-06-19T02:15:56;22.10;58.70
947;DHT22;460;48.734;9.152;2023-06-19T02:18:22;22.00;58.50
947;DHT22;460;48.734;9.152;2023-06-19T02:20:49;22.10;58.80
947;DHT22;460;48.734;9.152;2023-06-19T02:23:16;22.00;58.80
947;DHT22;460;48.734;9.152;2023-06-19T02:25:44;21.90;58.90
947;DHT22;460;48.734;9.152;2023-06-19T02:28:11;22.00;59.00
947;DHT22;460;48.734;9.152;2023-06-19T02:30:40;21.90;59.00
947;DHT22;460;48.734;9.152;2023-06-19T02:33:08;21.90;59.50
947;DHT22;460;48.734;9.152;2023-06-19T02:35:36;21.90;59.50
947;DHT22;460;48.734;9.152;2023-06-19T02:38:03;21.90;59.60
947;DHT22;460;48.734;9.152;2023-06-19T02:40:30;21.90;59.60
947;DHT22;460;48.734;9.152;2023-06-19T02:42:57;21.90;59.90
947;DHT22;460;48.734;9.152;2023-06-19T02:45:25;21.80;59.80
947;DHT22;460;48.734;9.152;2023-06-19T02:47:53;21.80;60.20
947;DHT22;460;48.734;9.152;2023-06-19T02:50:21;21.80;60.50
947;DHT22;460;48.734;9.152;2023-06-19T02:52:48;21.90;60.60
947;DHT22;460;48.734;9.152;2023-06-19T02:55:16;21.90;59.90
947;DHT22;460;48.734;9.152;2023-06-19T02:57:43;21.80;59.90
947;DHT22;460;48.734;9.152;2023-06-19T03:00:12;21.80;60.20
947;DHT22;460;48.734;9.152;2023-06-19T03:02:40;21.90;60.30
947;DHT22;460;48.734;9.152;2023-06-19T03:05:12;21.90;60.20
947;DHT22;460;48.734;9.152;2023-06-19T03:07:40;21.80;60.60
947;DHT22;460;48.734;9.152;2023-06-19T03:10:08;21.90;60.50
947;DHT22;460;48.734;9.152;2023-06-19T03:12:36;21.70;61.40
947;DHT22;460;48.734;9.152;2023-06-19T03:15:03;21.80;60.90
947;DHT22;460;48.734;9.152;2023-06-19T03:17:31;21.80;60.70
947;DHT22;460;48.734;9.152;2023-06-19T03:19:58;21.80;61.00
947;DHT22;460;48.734;9.152;2023-06-19T03:22:26;21.80;61.00
947;DHT22;460;48.734;9.152;2023-06-19T03:24:53;21.70;61.20
947;DHT22;460;48.734;9.152;2023-06-19T03:27:20;21.70;61.40
947;DHT22;460;48.734;9.152;2023-06-19T03:29:47;21.60;61.40
947;DHT22;460;48.734;9.152;2023-06-19T03:32:14;21.60;62.00
947;DHT22;460;48.734;9.152;2023-06-19T03:34:41;21.70;62.00
947;DHT22;460;48.734;9.152;2023-06-19T03:37:08;21.70;61.50
947;DHT22;460;48.734;9.152;2023-06-19T03:39:36;21.70;61.60
947;DHT22;460;48.734;9.152;2023-06-19T03:42:04;21.80;61.00
947;DHT22;460;48.734;9.152;2023-06-19T03:44:31;21.70;61.60
947;DHT22;460;48.734;9.152;2023-06-19T03:46:58;21.60;62.80
947;DHT22;460;48.734;9.152;2023-06-19T03:49:24;21.50;63.30
947;DHT22;460;48.734;9.152;2023-06-19T03:51:51;21.50;63.20
947;DHT22;460;48.734;9.152;2023-06-19T03:54:19;21.30;65.50
947;DHT22;460;48.734;9.152;2023-06-19T03:56:48;21.40;64.90
947;DHT22;460;48.734;9.152;2023-06-19T03:59:15;21.40;62.90
947;DHT22;460;48.734;9.152;2023-06-19T04:01:41;21.50;63.50
947;DHT22;460;48.734;9.152;2023-06-19T04:04:08;21.40;65.80
947;DHT22;460;48.734;9.152;2023-06-19T04:06:35;21.30;64.90
947;DHT22;460;48.734;9.152;2023-06-19T04:09:02;21.20;65.90
947;DHT22;460;48.734;9.152;2023-06-19T04:11:30;21.20;70.00
947;DHT22;460;48.734;9.152;2023-06-19T04:13:58;21.30;69.00
947;DHT22;460;48.734;9.152;2023-06-19T04:16:25;21.30;70.20
947;DHT22;460;48.734;9.152;2023-06-19T04:18:52;21.30;69.50
947;DHT22;460;48.734;9.152;2023-06-19T04:21:18;21.20;69.30
947;DHT22;460;48.734;9.152;2023-06-19T04:23:45;21.00;70.40
947;DHT22;460;48.734;9.152;2023-06-19T04:26:12;21.10;71.60
947;DHT22;460;48.734;9.152;2023-06-19T04:28:39;21.20;71.10
947;DHT22;460;48.734;9.152;2023-06-19T04:31:08;21.00;71.40
947;DHT22;460;48.734;9.152;2023-06-19T04:33:35;21.20;72.50
947;DHT22;460;48.734;9.152;2023-06-19T04:36:02;21.10;70.50
947;DHT22;460;48.734;9.152;2023-06-19T04:38:29;21.20;70.70
947;DHT22;460;48.734;9.152;2023-06-19T04:40:55;21.00;70.40
947;DHT22;460;48.734;9.152;2023-06-19T04:43:23;20.90;71.00
947;DHT22;460;48.734;9.152;2023-06-19T04:45:51;21.00;71.60
947;DHT22;460;48.734;9.152;2023-06-19T04:48:19;21.10;72.20
947;DHT22;460;48.734;9.152;2023-06-19T04:50:51;21.20;71.80
947;DHT22;460;48.734;9.152;2023-06-19T04:53:21;21.10;71.70
947;DHT22;460;48.734;9.152;2023-06-19T04:55:48;21.20;71.50
947;DHT22;460;48.734;9.152;2023-06-19T04:58:15;21.30;71.40
947;DHT22;460;48.734;9.152;2023-06-19T05:00:42;21.20;71.30
947;DHT22;460;48.734;9.152;2023-06-19T05:03:09;21.20;71.30
947;DHT22;460;48.734;9.152;2023-06-19T05:05:40;21.10;71.70
947;DHT22;460;48.734;9.152;2023-06-19T05:08:07;21.20;72.30
947;DHT22;460;48.734;9.152;2023-06-19T05:10:34;21.30;72.10
947;DHT22;460;48.734;9.152;2023-06-19T05:13:01;21.30;72.00
947;DHT22;460;48.734;9.152;2023-06-19T05:15:28;21.30;73.00
947;DHT22;460;48.734;9.152;2023-06-19T05:17:55;21.30;74.10
947;DHT22;460;48.734;9.152;2023-06-19T05:20:22;21.40;73.90
947;DHT22;460;48.734;9.152;2023-06-19T05:22:50;21.40;73.50
947;DHT22;460;48.734;9.152;2023-06-19T05:25:17;21.40;73.40
947;DHT22;460;48.734;9.152;2023-06-19T05:27:43;21.20;73.70
947;DHT22;460;48.734;9.152;2023-06-19T05:30:11;21.30;74.00
947;DHT22;460;48.734;9.152;2023-06-19T05:32:38;21.20;74.20
947;DHT22;460;48.734;9.152;2023-06-19T05:35:06;21.20;74.30
947;DHT22;460;48.734;9.152;2023-06-19T05:37:33;21.30;75.00
947;DHT22;460;48.734;9.152;2023-06-19T05:40:01;21.40;73.30
947;DHT22;460;48.734;9.152;2023-06-19T05:42:29;21.50;72.70
947;DHT22;460;48.734;9.152;2023-06-19T05:44:56;21.60;72.90
947;DHT22;460;48.734;9.152;2023-06-19T05:47:22;21.70;72.90
947;DHT22;460;48.734;9.152;2023-06-19T05:49:51;21.80;73.00
947;DHT22;460;48.734;9.152;2023-06-19T05:52:18;21.90;73.00
947;DHT22;460;48.734;9.152;2023-06-19T05:54:45;22.10;71.80
947;DHT22;460;48.734;9.152;2023-06-19T05:57:13;21.90;71.80
947;DHT22;460;48.734;9.152;2023-06-19T05:59:41;22.00;72.60
947;DHT22;460;48.734;9.152;2023-06-19T06:02:08;22.10;73.20
947;DHT22;460;48.734;9.152;2023-06-19T06:04:35;22.00;72.40
947;DHT22;460;48.734;9.152;2023-06-19T06:07:02;22.00;73.30
947;DHT22;460;48.734;9.152;2023-06-19T06:09:29;21.90;72.80
947;DHT22;460;48.734;9.152;2023-06-19T06:11:55;22.10;72.40
947;DHT22;460;48.734;9.152;2023-06-19T06:14:24;22.20;72.30
947;DHT22;460;48.734;9.152;2023-06-19T06:16:51;22.30;72.00
947;DHT22;460;48.734;9.152;2023-06-19T06:19:19;22.30;71.80
947;DHT22;460;48.734;9.152;2023-06-19T06:21:46;22.30;72.20
947;DHT22;460;48.734;9.152;2023-06-19T06:24:13;22.30;73.00
947;DHT22;460;48.734;9.152;2023-06-19T06:26:39;22.40;72.30
947;DHT22;460;48.734;9.152;2023-06-19T06:29:07;22.40;72.00
947;DHT22;460;48.734;9.152;2023-06-19T06:31:37;22.40;71.70
947;DHT22;460;48.734;9.152;2023-06-19T06:34:04;22.40;72.10
947;DHT22;460;48.734;9.152;2023-06-19T06:36:31;22.60;71.10
947;DHT22;460;48.734;9.152;2023-06-19T06:38:58;22.80;71.00
947;DHT22;460;48.734;9.152;2023-06-19T06:41:24;22.70;70.10
947;DHT22;460;48.734;9.152;2023-06-19T06:43:52;22.80;69.50
947;DHT22;460;48.734;9.152;2023-06-19T06:46:20;22.90;69.20
947;DHT22;460;48.734;9.152;2023-06-19T06:48:49;23.10;69.20
947;DHT22;460;48.734;9.152;2023-06-19T06:51:16;23.30;67.60
947;DHT22;460;48.734;9.152;2023-06-19T06:53:43;23.40;67.70
947;DHT22;460;48.734;9.152;2023-06-19T06:56:10;23.50;66.70
947;DHT22;460;48.734;9.152;2023-06-19T06:58:37;23.50;66.70
947;DHT22;460;48.734;9.152;2023-06-19T07:01:04;23.50;66.70
947;DHT22;460;48.734;9.152;2023-06-19T07:03:31;23.40;66.10
947;DHT22;460;48.734;9.152;2023-06-19T07:05:59;23.40;66.10
947;DHT22;460;48.734;9.152;2023-06-19T07:08:26;23.40;66.70
947;DHT22;460;48.734;9.152;2023-06-19T07:10:53;23.40;66.60
947;DHT22;460;48.734;9.152;2023-06-19T07:13:20;23.50;66.10
947;DHT22;460;48.734;9.152;2023-06-19T07:15:47;23.60;65.50
947;DHT22;460;48.734;9.152;2023-06-19T07:18:17;23.70;65.70
947;DHT22;460;48.734;9.152;2023-06-19T07:20:44;23.80;65.60
947;DHT22;460;48.734;9.152;2023-06-19T07:23:14;23.80;65.20
947;DHT22;460;48.734;9.152;2023-06-19T07:25:40;24.00;65.30
947;DHT22;460;48.734;9.152;2023-06-19T07:28:07;24.20;64.20
947;DHT22;460;48.734;9.152;2023-06-19T07:30:34;24.30;63.10
947;DHT22;460;48.734;9.152;2023-06-19T07:33:01;24.40;63.90
947;DHT22;460;48.734;9.152;2023-06-19T07:35:28;24.40;63.70
947;DHT22;460;48.734;9.152;2023-06-19T07:37:54;24.30;63.10
947;DHT22;460;48.734;9.152;2023-06-19T07:40:23;24.40;63.10
947;DHT22;460;48.734;9.152;2023-06-19T07:42:49;24.40;63.30
947;DHT22;460;48.734;9.152;2023-06-19T07:45:16;24.70;62.60
947;DHT22;460;48.734;9.152;2023-06-19T07:47:43;24.80;62.90
947;DHT22;460;48.734;9.152;2023-06-19T07:50:10;25.00;61.80
947;DHT22;460;48.734;9.152;2023-06-19T07:52:37;25.00;62.00
947;DHT22;460;48.734;9.152;2023-06-19T07:55:04;25.30;62.00
947;DHT22;460;48.734;9.152;2023-06-19T07:57:32;25.60;60.00
947;DHT22;460;48.734;9.152;2023-06-19T08:00:02;25.40;59.90
947;DHT22;460;48.734;9.152;2023-06-19T08:02:32;25.20;59.40
947;DHT22;460;48.734;9.152;2023-06-19T08:04:59;25.30;59.40
947;DHT22;460;48.734;9.152;2023-06-19T08:07:26;25.30;59.10
947;DHT22;460;48.734;9.152;2023-06-19T08:09:53;25.30;58.90
947;DHT22;460;48.734;9.152;2023-06-19T08:12:20;25.20;59.70
947;DHT22;460;48.734;9.152;2023-06-19T08:14:48;25.20;60.70
947;DHT22;460;48.734;9.152;2023-06-19T08:17:14;25.00;60.00
947;DHT22;460;48.734;9.152;2023-06-19T08:19:41;24.90;59.90
947;DHT22;460;48.734;9.152;2023-06-19T08:22:08;24.80;59.90
947;DHT22;460;48.734;9.152;2023-06-19T08:24:36;24.80;60.10
947;DHT22;460;48.734;9.152;2023-06-19T08:27:05;24.70;61.10
947;DHT22;460;48.734;9.152;2023-06-19T08:29:31;24.70;61.00
947;DHT22;460;48.734;9.152;2023-06-19T08:32:00;24.80;61.60
947;DHT22;460;48.734;9.152;2023-06-19T08:34:27;24.80;62.40
947;DHT22;460;48.734;9.152;2023-06-19T08:36:54;24.90;61.50
947;DHT22;460;48.734;9.152;2023-06-19T08:39:21;25.20;60.50
947;DHT22;460;48.734;9.152;2023-06-19T08:41:48;25.20;60.80
947;DHT22;460;48.734;9.152;2023-06-19T08:44:15;25.00;61.90
947;DHT22;460;48.734;9.152;2023-06-19T08:46:42;25.00;61.50
947;DHT22;460;48.734;9.152;2023-06-19T08:49:10;25.00;61.40
947;DHT22;460;48.734;9.152;2023-06-19T08:51:37;25.20;62.20
947;DHT22;460;48.734;9.152;2023-06-19T08:54:05;25.60;61.70
947;DHT22;460;48.734;9.152;2023-06-19T08:56:34;25.70;61.20
947;DHT22;460;48.734;9.152;2023-06-19T08:59:09;25.80;59.20
947;DHT22;460;48.734;9.152;2023-06-19T09:01:37;26.10;60.20
947;DHT22;460;48.734;9.152;2023-06-19T09:04:12;26.20;58.70
947;DHT22;460;48.734;9.152;2023-06-19T09:06:47;26.20;57.70
947;DHT22;460;48.734;9.152;2023-06-19T09:09:14;26.00;57.30
947;DHT22;460;48.734;9.152;2023-06-19T09:11:41;26.20;57.40
947;DHT22;460;48.734;9.152;2023-06-19T09:14:10;26.30;57.40
947;DHT22;460;48.734;9.152;2023-06-19T09:16:38;26.60;57.00
947;DHT22;460;48.734;9.152;2023-06-19T09:19:05;26.70;56.00
947;DHT22;460;48.734;9.152;2023-06-19T09:21:35;26.80;56.20
947;DHT22;460;48.734;9.152;2023-06-19T09:24:04;27.30;56.10
947;DHT22;460;48.734;9.152;2023-06-19T09:26:31;27.30;55.40
947;DHT22;460;48.734;9.152;2023-06-19T09:28:58;27.00;54.80
947;DHT22;460;48.734;9.152;2023-06-19T09:31:32;27.00;55.40
947;DHT22;460;48.734;9.152;2023-06-19T09:33:59;27.20;55.30
947;DHT22;460;48.734;9.152;2023-06-19T09:36:26;27.30;55.80
947;DHT22;460;48.734;9.152;2023-06-19T09:38:54;27.20;54.70
947;DHT22;460;48.734;9.152;2023-06-19T09:41:24;27.20;55.60
947;DHT22;460;48.734;9.152;2023-06-19T09:43:55;27.30;54.30
947;DHT22;460;48.734;9.152;2023-06-19T09:46:27;27.20;54.40
947;DHT22;460;48.734;9.152;2023-06-19T09:48:59;27.00;55.40
947;DHT22;460;48.734;9.152;2023-06-19T09:51:30;27.10;55.70
947;DHT22;460;48.734;9.152;2023-06-19T09:53:58;27.40;55.70
947;DHT22;460;48.734;9.152;2023-06-19T09:56:27;27.60;55.30
947;DHT22;460;48.734;9.152;2023-06-19T09:58:56;27.80;56.00
947;DHT22;460;48.734;9.152;2023-06-19T10:01:26;28.10;56.30
947;DHT22;460;48.734;9.152;2023-06-19T10:04:03;28.20;54.80
947;DHT22;460;48.734;9.152;2023-06-19T10:06:30;28.60;54.00
947;DHT22;460;48.734;9.152;2023-06-19T10:09:07;28.70;53.40
947;DHT22;460;48.734;9.152;2023-06-19T10:11:46;29.00;53.80
947;DHT22;460;48.734;9.152;2023-06-19T10:14:13;29.20;53.70
947;DHT22;460;48.734;9.152;2023-06-19T10:16:43;29.00;53.00
947;DHT22;460;48.734;9.152;2023-06-19T10:19:14;29.00;52.80
947;DHT22;460;48.734;9.152;2023-06-19T10:21:46;29.10;53.20
947;DHT22;460;48.734;9.152;2023-06-19T10:24:18;29.30;54.00
947;DHT22;460;48.734;9.152;2023-06-19T10:26:56;29.10;54.00
947;DHT22;460;48.734;9.152;2023-06-19T10:29:23;29.20;53.80
947;DHT22;460;48.734;9.152;2023-06-19T10:31:51;28.70;54.30
947;DHT22;460;48.734;9.152;2023-06-19T10:34:18;28.20;53.80
947;DHT22;460;48.734;9.152;2023-06-19T10:36:45;28.20;55.00
947;DHT22;460;48.734;9.152;2023-06-19T10:39:13;28.00;54.50
947;DHT22;460;48.734;9.152;2023-06-19T10:41:43;27.80;54.30
947;DHT22;460;48.734;9.152;2023-06-19T10:44:09;27.80;55.80
947;DHT22;460;48.734;9.152;2023-06-19T10:46:38;27.90;55.00
947;DHT22;460;48.734;9.152;2023-06-19T10:49:07;27.90;55.60
947;DHT22;460;48.734;9.152;2023-06-19T10:51:36;27.80;55.90
947;DHT22;460;48.734;9.152;2023-06-19T10:54:03;28.00;56.20
947;DHT22;460;48.734;9.152;2023-06-19T10:56:30;28.10;56.10
947;DHT22;460;48.734;9.152;2023-06-19T10:59:00;28.10;56.50
947;DHT22;460;48.734;9.152;2023-06-19T11:01:34;28.10;56.70
947;DHT22;460;48.734;9.152;2023-06-19T11:04:03;28.40;56.50
947;DHT22;460;48.734;9.152;2023-06-19T11:06:31;27.80;56.30
947;DHT22;460;48.734;9.152;2023-06-19T11:08:58;28.00;56.90
947;DHT22;460;48.734;9.152;2023-06-19T11:11:38;28.40;56.10
947;DHT22;460;48.734;9.152;2023-06-19T11:14:07;28.40;55.80
947;DHT22;460;48.734;9.152;2023-06-19T11:16:34;28.20;56.70
947;DHT22;460;48.734;9.152;2023-06-19T11:19:01;28.40;56.10
947;DHT22;460;48.734;9.152;2023-06-19T11:21:31;29.00;56.60
947;DHT22;460;48.734;9.152;2023-06-19T11:24:00;29.40;55.70
947;DHT22;460;48.734;9.152;2023-06-19T11:26:27;29.70;54.80
947;DHT22;460;48.734;9.152;2023-06-19T11:28:54;29.90;55.20
947;DHT22;460;48.734;9.152;2023-06-19T11:31:26;30.50;54.20
947;DHT22;460;48.734;9.152;2023-06-19T11:33:58;30.90;52.90
947;DHT22;460;48.734;9.152;2023-06-19T11:36:25;31.10;52.70
947;DHT22;460;48.734;9.152;2023-06-19T11:38:52;31.00;51.70
947;DHT22;460;48.734;9.152;2023-06-19T11:41:25;30.50;52.40
947;DHT22;460;48.734;9.152;2023-06-19T11:43:58;31.30;52.50
947;DHT22;460;48.734;9.152;2023-06-19T11:46:29;31.80;51.30
947;DHT22;460;48.734;9.152;2023-06-19T11:49:10;32.20;49.70
947;DHT22;460;48.734;9.152;2023-06-19T11:51:38;32.50;50.10
947;DHT22;460;48.734;9.152;2023-06-19T11:54:06;32.60;50.20
947;DHT22;460;48.734;9.152;2023-06-19T11:56:33;32.50;50.20
947;DHT22;460;48.734;9.152;2023-06-19T11:59:01;32.30;50.70
947;DHT22;460;48.734;9.152;2023-06-19T12:01:29;32.20;49.70
947;DHT22;460;48.734;9.152;2023-06-19T12:03:56;31.90;50.20
947;DHT22;460;48.734;9.152;2023-06-19T12:06:23;30.60;50.80
947;DHT22;460;48.734;9.152;2023-06-19T12:08:50;30.80;52.00
947;DHT22;460;48.734;9.152;2023-06-19T12:11:17;31.20;51.50
947;DHT22;460;48.734;9.152;2023-06-19T12:13:44;31.90;51.40
947;DHT22;460;48.734;9.152;2023-06-19T12:16:11;32.50;49.80
947;DHT22;460;48.734;9.152;2023-06-19T12:18:40;33.70;48.60
947;DHT22;460;48.734;9.152;2023-06-19T12:21:07;34.50;46.70
947;DHT22;460;48.734;9.152;2023-06-19T12:23:33;34.20;46.50
947;DHT22;460;48.734;9.152;2023-06-19T12:26:00;33.80;47.50
947;DHT22;460;48.734;9.152;2023-06-19T12:28:27;34.50;45.60
947;DHT22;460;48.734;9.152;2023-06-19T12:30:55;35.00;45.80
947;DHT22;460;48.734;9.152;2023-06-19T12:33:23;35.60;44.60
947;DHT22;460;48.734;9.152;2023-06-19T12:35:51;36.40;44.10
947;DHT22;460;48.734;9.152;2023-06-19T12:38:18;36.70;43.40
947;DHT22;460;48.734;9.152;2023-06-19T12:40:45;37.30;42.00
947;DHT22;460;48.734;9.152;2023-06-19T12:43:12;37.20;41.20
947;DHT22;460;48.734;9.152;2023-06-19T12:45:38;36.30;41.70
947;DHT22;460;48.734;9.152;2023-06-19T12:48:06;35.20;43.10
947;DHT22;460;48.734;9.152;2023-06-19T12:50:33;34.50;44.00
947;DHT22;460;48.734;9.152;2023-06-19T12:53:02;34.30;45.00
947;DHT22;460;48.734;9.152;2023-06-19T12:55:28;35.00;45.10
947;DHT22;460;48.734;9.152;2023-06-19T12:57:55;34.80;44.90
947;DHT22;460;48.734;9.152;2023-06-19T13:00:22;35.00;44.00
947;DHT22;460;48.734;9.152;2023-06-19T13:02:49;34.30;44.60
947;DHT22;460;48.734;9.152;2023-06-19T13:05:16;33.80;46.80
947;DHT22;460;48.734;9.152;2023-06-19T13:07:42;34.50;44.30
947;DHT22;460;48.734;9.152;2023-06-19T13:10:11;33.40;45.60
947;DHT22;460;48.734;9.152;2023-06-19T13:12:38;32.90;46.50
947;DHT22;460;48.734;9.152;2023-06-19T13:15:06;33.00;45.90
947;DHT22;460;48.734;9.152;2023-06-19T13:17:33;33.20;47.00
947;DHT22;460;48.734;9.152;2023-06-19T13:19:59;34.40;45.50
947;DHT22;460;48.734;9.152;2023-06-19T13:22:26;34.30;44.20
947;DHT22;460;48.734;9.152;2023-06-19T13:24:53;33.70;44.70
947;DHT22;460;48.734;9.152;2023-06-19T13:27:21;33.70;45.40
947;DHT22;460;48.734;9.152;2023-06-19T13:29:48;34.20;45.10
947;DHT22;460;48.734;9.152;2023-06-19T13:32:15;33.50;46.40
947;DHT22;460;48.734;9.152;2023-06-19T13:34:42;33.60;46.00
947;DHT22;460;48.734;9.152;2023-06-19T13:37:08;33.90;45.20
947;DHT22;460;48.734;9.152;2023-06-19T13:39:35;34.60;44.20
947;DHT22;460;48.734;9.152;2023-06-19T13:42:04;35.00;43.40
947;DHT22;460;48.734;9.152;2023-06-19T13:44:32;34.70;44.20
947;DHT22;460;48.734;9.152;2023-06-19T13:46:59;34.50;43.30
947;DHT22;460;48.734;9.152;2023-06-19T13:49:26;34.10;43.20
947;DHT22;460;48.734;9.152;2023-06-19T13:51:52;33.50;44.80
947;DHT22;460;48.734;9.152;2023-06-19T13:54:19;33.50;44.90
947;DHT22;460;48.734;9.152;2023-06-19T13:56:46;33.50;44.90
947;DHT22;460;48.734;9.152;2023-06-19T13:59:14;33.80;44.40
947;DHT22;460;48.734;9.152;2023-06-19T14:01:42;33.50;44.90
947;DHT22;460;48.734;9.152;2023-06-19T14:04:09;33.40;45.30
947;DHT22;460;48.734;9.152;2023-06-19T14:06:35;32.20;45.50
947;DHT22;460;48.734;9.152;2023-06-19T14:09:03;32.20;46.30
947;DHT22;460;48.734;9.152;2023-06-19T14:11:30;32.30;46.10
947;DHT22;460;48.734;9.152;2023-06-19T14:13:58;32.90;45.30
947;DHT22;460;48.734;9.152;2023-06-19T14:16:25;32.70;45.90
947;DHT22;460;48.734;9.152;2023-06-19T14:18:53;33.40;46.60
947;DHT22;460;48.734;9.152;2023-06-19T14:21:20;34.00;45.30
947;DHT22;460;48.734;9.152;2023-06-19T14:23:47;34.70;44.90
947;DHT22;460;48.734;9.152;2023-06-19T14:26:14;35.30;44.60
947;DHT22;460;48.734;9.152;2023-06-19T14:28:40;35.40;43.80
947;DHT22;460;48.734;9.152;2023-06-19T14:31:07;35.60;44.20
947;DHT22;460;48.734;9.152;2023-06-19T14:33:34;35.70;43.20
947;DHT22;460;48.734;9.152;2023-06-19T14:36:04;35.50;43.40
947;DHT22;460;48.734;9.152;2023-06-19T14:38:30;35.30;43.70
947;DHT22;460;48.734;9.152;2023-06-19T14:40:59;35.10;43.70
947;DHT22;460;48.734;9.152;2023-06-19T14:43:27;35.00;43.40
947;DHT22;460;48.734;9.152;2023-06-19T14:45:54;34.80;42.70
947;DHT22;460;48.734;9.152;2023-06-19T14:48:21;34.60;43.10
947;DHT22;460;48.734;9.152;2023-06-19T14:50:48;34.50;43.30
947;DHT22;460;48.734;9.152;2023-06-19T14:53:16;34.10;43.50
947;DHT22;460;48.734;9.152;2023-06-19T14:55:43;33.70;44.90
947;DHT22;460;48.734;9.152;2023-06-19T14:58:11;32.80;46.30
947;DHT22;460;48.734;9.152;2023-06-19T15:00:39;32.70;45.90
947;DHT22;460;48.734;9.152;2023-06-19T15:03:06;32.50;46.90
947;DHT22;460;48.734;9.152;2023-06-19T15:05:33;32.40;46.00
947;DHT22;460;48.734;9.152;2023-06-19T15:08:00;32.90;45.20
947;DHT22;460;48.734;9.152;2023-06-19T15:10:30;33.30;44.20
947;DHT22;460;48.734;9.152;2023-06-19T15:12:56;33.30;44.30
947;DHT22;460;48.734;9.152;2023-06-19T15:15:23;33.30;44.20
947;DHT22;460;48.734;9.152;2023-06-19T15:17:50;32.90;44.00
947;DHT22;460;48.734;9.152;2023-06-19T15:20:17;33.00;44.80
947;DHT22;460;48.734;9.152;2023-06-19T15:22:45;33.10;44.30
947;DHT22;460;48.734;9.152;2023-06-19T15:25:12;33.00;44.50
947;DHT22;460;48.734;9.152;2023-06-19T15:27:40;32.90;44.70
947;DHT22;460;48.734;9.152;2023-06-19T15:30:08;32.50;45.50
947;DHT22;460;48.734;9.152;2023-06-19T15:32:35;31.90;46.60
947;DHT22;460;48.734;9.152;2023-06-19T15:35:02;32.10;45.20
947;DHT22;460;48.734;9.152;2023-06-19T15:37:29;31.90;45.80
947;DHT22;460;48.734;9.152;2023-06-19T15:39:55;31.60;46.40
947;DHT22;460;48.734;9.152;2023-06-19T15:42:22;31.50;47.30
947;DHT22;460;48.734;9.152;2023-06-19T15:44:50;31.40;46.90
947;DHT22;460;48.734;9.152;2023-06-19T15:47:17;31.20;45.90
947;DHT22;460;48.734;9.152;2023-06-19T15:49:44;30.90;46.80
947;DHT22;460;48.734;9.152;2023-06-19T15:52:11;30.60;47.90
947;DHT22;460;48.734;9.152;2023-06-19T15:54:38;30.10;48.50
947;DHT22;460;48.734;9.152;2023-06-19T15:57:05;29.80;48.30
947;DHT22;460;48.734;9.152;2023-06-19T15:59:32;29.80;49.10
947;DHT22;460;48.734;9.152;2023-06-19T16:02:00;29.70;49.20
947;DHT22;460;48.734;9.152;2023-06-19T16:04:27;29.30;49.80
947;DHT22;460;48.734;9.152;2023-06-19T16:06:53;29.30;50.10
947;DHT22;460;48.734;9.152;2023-06-19T16:09:20;29.50;51.00
947;DHT22;460;48.734;9.152;2023-06-19T16:11:47;29.70;51.40
947;DHT22;460;48.734;9.152;2023-06-19T16:14:15;29.70;51.50
947;DHT22;460;48.734;9.152;2023-06-19T16:16:42;29.70;50.60
947;DHT22;460;48.734;9.152;2023-06-19T16:19:10;29.20;51.70
947;DHT22;460;48.734;9.152;2023-06-19T16:21:37;29.00;51.90
947;DHT22;460;48.734;9.152;2023-06-19T16:24:04;29.00;52.10
947;DHT22;460;48.734;9.152;2023-06-19T16:26:31;29.30;51.80
947;DHT22;460;48.734;9.152;2023-06-19T16:28:58;29.40;51.20
947;DHT22;460;48.734;9.152;2023-06-19T16:31:25;29.60;50.60
947;DHT22;460;48.734;9.152;2023-06-19T16:33:51;29.60;50.80
947;DHT22;460;48.734;9.152;2023-06-19T16:36:19;29.50;49.90
947;DHT22;460;48.734;9.152;2023-06-19T16:38:48;29.60;48.00